Time;durP1;ratioP1;P1;durP2;ratioP2;P2;SDS_P1;SDS_P2;PMS_P1;PMS_P2;Temp;Humidity;BMP_temperature;BMP_pressure;BME280_temperature;BME280_humidity;BME280_pressure;Samples;Min_cycle;Max_cycle;Signal;HPM_P1;HPM_P2
2022/08/12 00:44:48;;;;;;;4.35;2.58;;;;;;;18.76;100.00;165473.59;5011087;28;20119;-59
2022/08/12 00:47:15;;;;;;;6.80;3.40;;;;;;;18.79;100.00;165481.75;5012983;28;20497;-59
2022/08/12 00:49:41;;;;;;;2.92;2.63;;;;;;;18.73;100.00;165465.47;5014986;28;20552;-60
2022/08/12 00:52:09;;;;;;;8.73;3.65;;;;;;;18.73;100.00;165466.81;5032322;28;20110;-60
2022/08/12 00:54:58;;;;;;;4.05;3.65;;;;;;;18.71;100.00;165462.75;5017692;28;20044;-60
2022/08/12 00:57:26;;;;;;;3.03;2.55;;;;;;;18.73;100.00;165466.81;5012603;28;20539;-61
2022/08/12 01:00:01;;;;;;;8.93;3.08;;;;;;;18.75;100.00;165470.88;5024569;28;20095;-61
2022/08/12 01:02:29;;;;;;;2.97;2.75;;;;;;;18.71;100.00;165462.75;5031938;28;20029;-62
2022/08/12 01:13:20;;;;;;;3.25;2.78;;;;;;;18.59;100.00;165430.19;5012252;28;20124;-61
2022/08/12 01:15:48;;;;;;;6.13;2.50;;;;;;;18.55;100.00;165419.34;5010866;28;20042;-61
2022/08/12 01:18:14;;;;;;;4.03;3.05;;;;;;;18.50;100.00;165405.81;5012442;28;20030;-61
2022/08/12 01:20:48;;;;;;;4.50;3.42;;;;;;;18.44;100.00;165389.50;5020037;28;20141;-61
2022/08/12 01:23:31;;;;;;;11.35;4.72;;;;;;;18.30;100.00;165354.25;5030349;28;20095;-61
2022/08/12 01:25:58;;;;;;;4.05;3.22;;;;;;;18.27;100.00;165344.75;5010641;28;20509;-61
2022/08/12 01:28:27;;;;;;;4.95;3.15;;;;;;;18.21;100.00;165329.84;5011138;28;20046;-61
2022/08/12 01:30:53;;;;;;;4.15;3.60;;;;;;;18.10;100.00;165300.03;5010436;28;20045;-61
2022/08/12 01:33:20;;;;;;;6.78;3.33;;;;;;;17.97;100.00;165267.50;5027611;28;20052;-61
2022/08/12 01:35:57;;;;;;;8.60;3.10;;;;;;;17.83;100.00;165230.84;5029037;28;20052;-60
2022/08/12 01:38:24;;;;;;;3.78;3.47;;;;;;;17.66;100.00;165184.72;5031248;28;20067;-61
2022/08/12 01:40:50;;;;;;;3.85;3.22;;;;;;;17.54;100.00;165153.56;5020109;28;20042;-61
2022/08/12 01:43:20;;;;;;;3.72;3.30;;;;;;;17.42;100.00;165123.75;5011198;28;20026;-60
2022/08/12 01:46:06;;;;;;;6.20;3.30;;;;;;;17.28;100.00;165085.81;5010463;28;20072;-60
2022/08/12 01:48:48;;;;;;;4.00;3.60;;;;;;;17.13;100.00;165047.88;5011793;28;20057;-60
2022/08/12 01:51:38;;;;;;;7.97;3.85;;;;;;;17.04;100.00;165023.47;5019928;28;20607;-60
2022/08/12 01:54:11;;;;;;;8.40;3.70;;;;;;;16.96;100.00;165003.19;5029787;28;20112;-60
2022/08/12 01:57:01;;;;;;;8.90;3.75;;;;;;;16.90;100.00;164985.50;5021307;28;20437;-59
2022/08/12 01:59:48;;;;;;;5.30;4.10;;;;;;;16.89;100.00;164982.78;5009770;28;20121;-60
2022/08/12 02:02:28;;;;;;;4.82;4.40;;;;;;;16.81;100.00;164962.47;5011532;28;20029;-60
2022/08/12 02:11:29;;;;;;;5.13;4.47;;;;;;;16.57;100.00;164898.81;5019524;28;20049;-60
2022/08/12 02:14:27;;;;;;;7.63;4.07;;;;;;;16.47;100.00;164874.41;5030234;28;20123;-60
2022/08/12 02:17:13;;;;;;;7.00;4.20;;;;;;;16.38;100.00;164850.03;5029830;28;20041;-60
2022/08/12 02:20:13;;;;;;;5.13;4.63;;;;;;;16.25;100.00;164816.16;5029082;28;20052;-61
2022/08/12 02:22:41;;;;;;;3.88;3.50;;;;;;;16.09;100.00;164774.19;5013927;28;20428;-60
2022/08/12 02:25:09;;;;;;;6.25;4.65;;;;;;;15.99;100.00;164747.09;5024244;28;20048;-60
2022/08/12 02:27:40;;;;;;;5.32;4.63;;;;;;;15.90;100.00;164722.75;5030347;28;20104;-60
2022/08/12 02:30:08;;;;;;;5.30;4.47;;;;;;;15.82;100.00;164703.69;5029764;28;20460;-60
2022/08/12 02:32:36;;;;;;;;;;;;;;;15.72;100.00;164676.66;5031291;28;20040;-60
2022/08/12 02:35:01;;;;;;;8.55;5.53;;;;;;;15.64;100.00;164656.31;5025337;28;19953;-60
2022/08/12 02:37:30;;;;;;;8.55;5.60;;;;;;;15.54;100.00;164630.59;5027099;28;20026;-61
2022/08/12 02:39:58;;;;;;;7.55;6.25;;;;;;;15.48;100.00;164613.03;5016005;28;20073;-61
2022/08/12 02:42:27;;;;;;;8.27;7.10;;;;;;;15.43;100.00;164600.84;5019395;28;20029;-61
2022/08/12 02:44:54;;;;;;;6.53;5.72;;;;;;;15.38;100.00;164587.25;5018298;28;20107;-60
2022/08/12 02:47:23;;;;;;;5.32;4.93;;;;;;;15.31;100.00;164568.31;5015693;28;20056;-60
2022/08/12 02:49:54;;;;;;;6.35;4.93;;;;;;;15.29;100.00;164562.94;5009387;28;20038;-61
2022/08/12 02:52:21;;;;;;;5.07;4.70;;;;;;;15.29;100.00;164564.28;5011192;28;20048;-61
2022/08/12 02:54:52;;;;;;;5.43;5.03;;;;;;;15.30;100.00;164565.66;5009589;28;20049;-61
2022/08/12 02:57:21;;;;;;;10.45;5.97;;;;;;;15.29;100.00;164562.94;5010468;28;20034;-61
2022/08/12 02:59:48;;;;;;;6.65;5.25;;;;;;;15.28;100.00;164560.22;5015765;28;20065;-61
2022/08/12 03:02:18;;;;;;;8.43;6.28;;;;;;;15.21;100.00;164544.00;5030468;28;20033;-61
2022/08/12 03:04:55;;;;;;;9.80;5.40;;;;;;;15.20;100.00;164541.28;5028967;28;20038;-61
2022/08/12 03:07:30;;;;;;;9.63;4.85;;;;;;;15.15;100.00;164527.72;5030292;28;20037;-61
2022/08/12 03:10:02;;;;;;;6.90;5.00;;;;;;;15.11;100.00;164516.91;5029267;28;20172;-59
2022/08/12 03:12:31;;;;;;;4.55;3.63;;;;;;;15.07;100.00;164507.44;5029976;28;20481;-59
2022/08/12 03:15:00;;;;;;;6.22;4.57;;;;;;;15.07;100.00;164506.09;5018146;28;20455;-59
2022/08/12 03:17:35;;;;;;;5.47;4.90;;;;;;;15.06;100.00;164503.38;5010477;28;20018;-59
2022/08/12 03:20:02;;;;;;;6.07;3.90;;;;;;;15.06;100.00;164503.38;5012116;28;20071;-59
2022/08/12 03:22:30;;;;;;;11.55;5.38;;;;;;;15.02;100.00;164492.53;5014152;28;20026;-59
2022/08/12 03:24:58;;;;;;;7.28;4.95;;;;;;;15.00;100.00;164487.16;5012872;28;20041;-59
2022/08/12 03:27:25;;;;;;;;;;;;;;;14.99;100.00;164484.44;5017284;28;20064;-60
2022/08/12 03:29:55;;;;;;;7.50;4.47;;;;;;;14.98;100.00;164481.72;5032582;28;19920;-59
2022/08/12 03:32:24;;;;;;;6.18;5.50;;;;;;;15.00;100.00;164487.16;5033778;28;20394;-58
2022/08/12 03:34:51;;;;;;;6.75;4.90;;;;;;;15.01;100.00;164489.81;5032030;28;20034;-59
2022/08/12 03:37:19;;;;;;;10.32;5.60;;;;;;;15.03;100.00;164495.22;5031943;28;20025;-59
2022/08/12 03:39:44;;;;;;;5.05;4.30;;;;;;;15.01;100.00;164489.81;5032355;28;20034;-59
2022/08/12 03:42:34;;;;;;;5.22;4.72;;;;;;;14.96;100.00;164476.28;5032871;28;20026;-59
2022/08/12 04:01:54;;;;;;;7.15;5.25;;;;;;;14.64;100.00;164392.31;5033635;28;20083;-60
2022/08/12 04:04:22;;;;;;;9.75;5.95;;;;;;;14.60;100.00;164384.25;5030902;28;20472;-60
2022/08/12 04:06:48;;;;;;;13.40;5.90;;;;;;;14.57;100.00;164374.78;5031931;28;20040;-61
2022/08/12 04:09:15;;;;;;;9.23;6.18;;;;;;;14.54;100.00;164368.00;5032007;28;20468;-62
2022/08/12 04:14:26;;;;;;;10.68;4.60;;;;;;;14.60;100.00;164384.25;5027599;28;20095;-60
2022/08/12 04:16:52;;;;;;;6.85;4.63;;;;;;;14.59;100.00;164380.19;5018367;28;20026;-60
2022/08/12 04:19:18;;;;;;;7.40;6.18;;;;;;;14.57;100.00;164374.78;5014429;28;20092;-60
2022/08/12 04:21:45;;;;;;;8.35;5.35;;;;;;;14.56;100.00;164373.38;5013250;28;20029;-61
2022/08/12 04:24:11;;;;;;;11.10;4.90;;;;;;;14.49;100.00;164354.44;5011667;28;20030;-60
2022/08/12 04:26:38;;;;;;;7.47;5.15;;;;;;;14.44;100.00;164340.94;5012547;28;20022;-60
2022/08/12 04:29:05;;;;;;;10.40;5.00;;;;;;;14.44;100.00;164340.94;5028053;28;20035;-60
2022/08/12 04:31:31;;;;;;;5.65;4.43;;;;;;;14.45;100.00;164343.66;5014905;28;20030;-60
2022/08/12 04:33:58;;;;;;;10.30;5.68;;;;;;;14.47;100.00;164349.06;5026391;28;20038;-61
2022/08/12 04:36:23;;;;;;;4.82;4.40;;;;;;;14.44;100.00;164342.25;5011239;28;20064;-60
2022/08/12 04:38:50;;;;;;;15.13;6.65;;;;;;;14.50;100.00;164357.16;5012841;28;20065;-61
2022/08/12 04:41:17;;;;;;;10.52;4.60;;;;;;;14.50;100.00;164357.16;5010941;28;20113;-60
2022/08/12 04:43:43;;;;;;;7.23;4.50;;;;;;;14.55;100.00;164370.72;5012340;28;20383;-60
2022/08/12 04:46:08;;;;;;;17.60;5.63;;;;;;;14.55;100.00;164369.34;5030189;28;20052;-61
2022/08/12 04:48:33;;;;;;;5.28;4.78;;;;;;;14.53;100.00;164365.28;5027675;28;20018;-59
2022/08/12 04:50:59;;;;;;;8.25;4.85;;;;;;;14.56;100.00;164373.38;5011163;28;20041;-58
2022/08/12 04:53:24;;;;;;;7.07;4.90;;;;;;;14.62;100.00;164386.94;5024274;28;20037;-59
2022/08/12 04:55:51;;;;;;;7.07;5.25;;;;;;;14.66;100.00;164399.19;5019308;28;20057;-61
2022/08/12 04:58:16;;;;;;;11.45;6.57;;;;;;;14.73;100.00;164418.13;5016592;28;20018;-60
2022/08/12 05:00:42;;;;;;;6.85;5.10;;;;;;;14.76;100.00;164424.88;5012700;28;20038;-57
2022/08/12 05:03:07;;;;;;;8.32;5.68;;;;;;;14.98;100.00;164481.72;5025277;28;20037;-58
2022/08/12 05:05:34;;;;;;;8.80;6.47;;;;;;;15.12;100.00;164519.59;5009636;28;20069;-58
2022/08/12 05:07:59;;;;;;;7.32;5.60;;;;;;;15.27;100.00;164557.50;5011473;28;20026;-58
2022/08/12 05:10:25;;;;;;;7.60;5.13;;;;;;;15.37;100.00;164584.59;5013182;28;20045;-67
2022/08/12 05:12:58;;;;;;;8.80;5.45;;;;;;;15.62;100.00;164649.53;5016149;28;20017;-62
2022/08/12 05:15:24;;;;;;;7.45;4.30;;;;;;;15.75;100.00;164684.75;5017179;28;20038;-63
2022/08/12 05:17:50;;;;;;;9.20;6.18;;;;;;;15.88;100.00;164717.31;5021515;28;20025;-63
2022/08/12 05:20:18;;;;;;;9.75;5.15;;;;;;;16.00;100.00;164749.81;5028741;28;20084;-63
2022/08/12 05:22:44;;;;;;;7.95;5.47;;;;;;;16.12;100.00;164782.28;5031573;28;20028;-63
2022/08/12 05:25:10;;;;;;;15.27;5.20;;;;;;;16.24;100.00;164813.44;5023657;28;20042;-63
2022/08/12 05:27:37;;;;;;;9.63;4.97;;;;;;;16.36;100.00;164843.25;5012137;28;20050;-63
2022/08/12 05:30:03;;;;;;;6.85;5.28;;;;;;;16.48;100.00;164877.13;5016725;28;20388;-63
2022/08/12 05:32:28;;;;;;;5.20;4.68;;;;;;;16.62;100.00;164912.34;5019359;28;20037;-58
2022/08/12 05:34:53;;;;;;;7.32;5.78;;;;;;;16.74;100.00;164944.84;5018843;28;20034;-58
2022/08/12 05:37:21;;;;;;;10.40;5.03;;;;;;;16.85;100.00;164971.97;5020359;28;20025;-58
2022/08/12 05:39:46;;;;;;;9.73;5.73;;;;;;;16.94;100.00;164996.41;5017995;28;20117;-58
2022/08/12 05:42:12;;;;;;;5.43;4.32;;;;;;;17.07;100.00;165031.63;5021453;28;20528;-58
2022/08/12 05:44:37;;;;;;;13.18;5.13;;;;;;;17.15;100.00;165050.59;5015152;28;20387;-58
2022/08/12 05:47:03;;;;;;;9.95;5.80;;;;;;;17.24;100.00;165076.34;5019392;28;20075;-57
2022/08/12 05:49:28;;;;;;;11.20;5.28;;;;;;;17.33;100.00;165098.03;5020239;28;20041;-58
2022/08/12 05:51:54;;;;;;;7.07;4.20;;;;;;;17.37;100.00;165110.22;5025972;28;20417;-58
2022/08/12 05:54:20;;;;;;;7.22;4.35;;;;;;;17.49;100.00;165141.41;5014196;28;20041;-58
2022/08/12 05:56:47;;;;;;;4.88;4.35;;;;;;;17.62;100.00;165175.25;5014825;28;20057;-58
2022/08/12 05:59:12;;;;;;;4.07;3.72;;;;;;;17.70;100.00;165195.59;5018894;28;20021;-57
2022/08/12 06:01:39;;;;;;;5.15;4.65;;;;;;;17.80;100.00;165221.34;5017892;28;20592;-58
2022/08/12 06:04:05;;;;;;;5.05;4.20;;;;;;;17.92;100.00;165253.88;5019988;28;20036;-58
2022/08/12 06:06:40;;;;;;;8.07;3.92;;;;;;;18.01;100.00;165278.34;5019980;28;20017;-57
2022/08/12 06:09:08;;;;;;;9.65;4.38;;;;;;;18.16;100.00;165316.28;5017493;28;20385;-58
2022/08/12 06:11:34;;;;;;;5.20;3.83;;;;;;;18.32;100.00;165358.31;5020308;28;20017;-58
2022/08/12 06:13:59;;;;;;;6.50;5.03;;;;;;;18.43;100.00;165388.16;5017082;28;20105;-58
2022/08/12 06:16:25;;;;;;;8.07;4.18;;;;;;;18.57;100.00;165424.78;5019102;28;20033;-58
2022/08/12 06:18:51;;;;;;;5.93;3.90;;;;;;;18.68;100.00;165454.59;5017415;28;20022;-58
2022/08/12 06:21:22;;;;;;;4.28;3.47;;;;;;;18.81;100.00;165488.53;5018760;28;20052;-58
2022/08/12 06:23:47;;;;;;;7.35;3.75;;;;;;;18.96;100.00;165527.88;5017839;28;20022;-58
2022/08/12 06:26:15;;;;;;;7.63;3.83;;;;;;;19.09;100.00;165560.47;5009224;28;20401;-58
2022/08/12 06:28:41;;;;;;;4.15;3.28;;;;;;;19.30;100.00;165617.44;5013800;28;20556;-58
2022/08/12 06:31:08;;;;;;;4.72;3.55;;;;;;;19.48;100.00;165663.53;5011421;28;20050;-58
2022/08/12 06:33:34;;;;;;;6.15;3.20;;;;;;;19.60;100.00;165696.13;5027658;28;20037;-58
2022/08/12 06:36:00;;;;;;;4.10;3.55;;;;;;;19.78;100.00;165742.25;5028616;28;20497;-58
2022/08/12 06:38:27;;;;;;;6.53;3.35;;;;;;;19.99;100.00;165796.59;5029538;28;20113;-57
2022/08/12 06:43:40;;;;;;;4.70;3.08;;;;;;;20.35;100.00;165891.59;5015725;28;20107;-58
2022/08/12 06:46:05;;;;;;;5.25;3.35;;;;;;;20.53;100.00;165940.44;5008131;28;20046;-58
2022/08/12 06:48:31;;;;;;;9.45;2.92;;;;;;;20.72;100.00;165989.34;5026030;28;20026;-58
2022/08/12 06:50:58;;;;;;;9.23;3.05;;;;;;;20.89;100.00;166035.53;5028749;28;20042;-58
2022/08/12 06:53:25;;;;;;;4.22;2.78;;;;;;;21.05;100.00;166076.28;5030357;28;20393;-58
2022/08/12 06:55:55;;;;;;;4.63;2.63;;;;;;;21.26;100.00;166131.97;5031768;28;20556;-58
2022/08/12 06:58:23;;;;;;;9.07;3.03;;;;;;;21.48;100.00;166190.34;5032828;28;20036;-58
2022/08/12 07:00:49;;;;;;;16.65;3.90;;;;;;;21.85;100.00;166288.25;5032122;28;20045;-58
2022/08/12 07:03:27;;;;;;;3.70;2.63;;;;;;;22.38;100.00;166425.44;5033854;28;20033;-57
2022/08/12 07:05:57;;;;;;;5.25;3.65;;;;;;;23.62;100.00;166753.13;5032531;28;20041;-57
2022/08/12 07:08:28;;;;;;;3.55;2.72;;;;;;;24.90;100.00;167089.13;5033423;28;20033;-58
2022/08/12 07:10:58;;;;;;;6.03;3.20;;;;;;;25.95;100.00;167368.13;5024933;28;20516;-58
2022/08/12 07:13:42;;;;;;;8.00;3.05;;;;;;;26.50;100.00;167512.50;5013618;28;20033;-58
2022/08/12 07:16:08;;;;;;;13.82;3.20;;;;;;;26.97;100.00;167635.09;5012353;28;20061;-58
2022/08/12 07:18:34;;;;;;;5.38;2.72;;;;;;;27.24;100.00;167707.28;5029746;28;20022;-58
2022/08/12 07:21:02;;;;;;;16.38;4.72;;;;;;;27.30;100.00;167722.22;5032122;28;20045;-58
2022/08/12 07:23:29;;;;;;;4.10;2.67;;;;;;;27.04;100.00;167654.16;5033051;28;20025;-58
2022/08/12 07:25:56;;;;;;;5.45;3.65;;;;;;;26.53;100.00;167519.28;5030708;28;20404;-57
2022/08/12 07:28:23;;;;;;;3.65;3.00;;;;;;;26.25;100.00;167447.13;5032724;28;20073;-58
2022/08/12 07:30:51;;;;;;;3.97;2.70;;;;;;;25.85;100.00;167340.94;5031593;28;20041;-58
2022/08/12 07:33:22;;;;;;;7.97;3.35;;;;;;;25.52;100.00;167253.81;5028577;28;20025;-58
2022/08/12 07:35:51;;;;;;;5.03;3.10;;;;;;;25.28;100.00;167191.16;5025365;28;20038;-58
2022/08/12 07:38:25;;;;;;;6.60;3.33;;;;;;;25.18;100.00;167165.31;5019093;28;20084;-58
2022/08/12 07:41:01;;;;;;;6.40;3.45;;;;;;;25.11;100.00;167146.25;5019151;28;20041;-58
2022/08/12 07:43:28;;;;;;;12.15;3.00;;;;;;;24.98;100.00;167110.91;5032648;28;20036;-58
2022/08/12 07:45:54;;;;;;;3.65;2.65;;;;;;;24.90;100.00;167089.13;5031460;28;20072;-58
2022/08/12 07:48:22;;;;;;;7.68;3.30;;;;;;;24.98;100.00;167112.25;5018126;28;20515;-59
2022/08/12 07:50:47;;;;;;;5.50;3.00;;;;;;;25.16;100.00;167158.50;5011753;28;20034;-58
2022/08/12 07:53:13;;;;;;;8.32;2.50;;;;;;;25.25;100.00;167183.03;5012882;28;20486;-58
2022/08/12 07:55:38;;;;;;;5.40;2.80;;;;;;;25.26;100.00;167184.34;5012583;28;20127;-58
2022/08/12 07:58:04;;;;;;;10.13;2.70;;;;;;;25.44;100.00;167232.03;5013062;28;20355;-58
2022/08/12 08:00:34;;;;;;;6.78;3.08;;;;;;;25.63;100.00;167283.78;5011155;28;20069;-58
2022/08/12 08:03:00;;;;;;;8.40;2.83;;;;;;;25.35;100.00;167208.88;5013266;28;20029;-58
2022/08/12 08:05:30;;;;;;;6.38;2.55;;;;;;;25.63;100.00;167283.78;5010956;28;20044;-58
2022/08/12 08:08:00;;;;;;;15.27;3.63;;;;;;;25.86;100.00;167343.66;5019061;28;20076;-58
2022/08/12 08:10:26;;;;;;;5.82;3.05;;;;;;;26.19;100.00;167430.81;5011405;28;20500;-58
2022/08/12 08:12:52;;;;;;;16.25;3.38;;;;;;;26.11;100.00;167409.00;5012934;28;20088;-58
2022/08/12 08:15:19;;;;;;;4.45;2.40;;;;;;;26.21;100.00;167436.25;5011036;28;20461;-58
2022/08/12 08:18:02;;;;;;;13.60;3.38;;;;;;;26.47;100.00;167504.34;5023712;28;20590;-58
2022/08/12 08:20:32;;;;;;;6.82;3.13;;;;;;;26.73;100.00;167573.75;5030996;28;20095;-58
2022/08/12 08:23:04;;;;;;;3.72;2.85;;;;;;;26.90;99.50;167617.38;5032573;28;20029;-58
2022/08/12 08:25:30;;;;;;;12.90;3.60;;;;;;;27.13;98.88;167678.69;5030811;28;20065;-59
2022/08/12 08:28:07;;;;;;;12.13;3.60;;;;;;;27.39;100.00;167746.75;5031416;28;20092;-58
2022/08/12 08:30:33;;;;;;;3.33;3.05;;;;;;;27.59;98.01;167798.59;5030386;28;20065;-58
2022/08/12 08:32:59;;;;;;;15.57;3.55;;;;;;;27.78;96.21;167850.34;5032053;28;20507;-58
2022/08/12 08:35:24;;;;;;;2.97;2.30;;;;;;;28.21;95.04;167962.09;5030301;28;20044;-58
2022/08/12 08:37:51;;;;;;;11.05;3.47;;;;;;;28.56;88.81;168056.13;5017845;28;20549;-58
2022/08/12 08:43:02;;;;;;;2.42;2.22;;;;;;;28.87;83.48;168137.94;5012623;28;20037;-58
2022/08/12 08:45:27;;;;;;;5.32;2.50;;;;;;;29.00;84.16;168172.03;5010295;28;20042;-58
2022/08/12 08:47:53;;;;;;;4.38;2.40;;;;;;;29.02;76.38;168177.44;5024640;28;20383;-58
2022/08/12 08:50:18;;;;;;;6.28;3.15;;;;;;;29.17;75.78;168217.00;5030233;28;20049;-58
2022/08/12 08:52:45;;;;;;;6.25;2.75;;;;;;;29.29;75.59;168249.72;5031476;28;20385;-58
2022/08/12 08:55:15;;;;;;;8.70;3.43;;;;;;;29.25;75.13;168238.81;5030680;28;20118;-59
2022/08/12 08:57:49;;;;;;;11.60;2.90;;;;;;;29.42;71.76;168283.84;5031405;28;20401;-58
2022/08/12 09:00:17;;;;;;;7.47;3.20;;;;;;;29.54;74.51;168313.81;5030351;28;20038;-58
2022/08/12 09:02:43;;;;;;;10.02;2.45;;;;;;;29.50;72.18;168302.94;5018586;28;20112;-58
2022/08/12 09:05:10;;;;;;;6.65;2.53;;;;;;;29.52;70.36;168308.41;5010356;28;20045;-58
2022/08/12 09:07:48;;;;;;;4.68;2.63;;;;;;;29.66;68.31;168345.19;5011403;28;20481;-58
2022/08/12 09:10:16;;;;;;;10.40;2.97;;;;;;;29.93;66.04;168417.50;5010619;28;20071;-59
2022/08/12 09:15:30;;;;;;;9.10;3.22;;;;;;;30.18;61.51;168484.31;5012443;28;20056;-58
2022/08/12 09:17:57;;;;;;;8.38;3.78;;;;;;;30.22;63.88;168493.84;5031011;28;20030;-59
2022/08/12 09:20:29;;;;;;;6.15;2.70;;;;;;;30.43;62.23;168548.38;5029793;28;20087;-58
2022/08/12 09:22:56;;;;;;;8.13;2.83;;;;;;;30.49;60.81;168566.13;5030812;28;20115;-58
2022/08/12 09:25:25;;;;;;;2.83;2.38;;;;;;;30.16;58.69;168477.50;5029551;28;20052;-59
2022/08/12 09:27:53;;;;;;;9.45;3.83;;;;;;;30.37;58.03;168534.75;5031209;28;20561;-58
2022/08/12 09:30:20;;;;;;;7.57;2.78;;;;;;;30.99;57.88;168698.50;5019984;28;20057;-59
2022/08/12 09:32:49;;;;;;;12.63;3.73;;;;;;;31.16;56.57;168742.22;5012051;28;20080;-58
2022/08/12 09:35:22;;;;;;;3.10;2.28;;;;;;;31.19;57.39;168750.38;5018649;28;20075;-58
2022/08/12 09:37:48;;;;;;;6.35;2.08;;;;;;;31.38;57.24;168799.50;5031336;28;20060;-58
2022/08/12 09:40:16;;;;;;;8.43;2.87;;;;;;;31.44;53.51;168815.88;5030265;28;20038;-58
2022/08/12 09:45:26;;;;;;;9.73;2.65;;;;;;;30.77;53.90;168638.47;5026800;28;20057;-59
2022/08/12 09:47:52;;;;;;;6.25;2.45;;;;;;;31.06;54.88;168714.88;5011750;28;20025;-58
2022/08/12 09:50:18;;;;;;;5.25;2.30;;;;;;;31.35;53.77;168791.31;5010113;28;20038;-59
2022/08/12 09:52:51;;;;;;;3.95;3.17;;;;;;;30.68;51.49;168616.66;5011397;28;20028;-58
2022/08/12 09:55:17;;;;;;;9.63;2.45;;;;;;;30.45;51.18;168553.84;5016928;28;20045;-58
2022/08/12 09:57:42;;;;;;;5.85;2.72;;;;;;;30.85;53.17;168660.31;5019107;28;20149;-58
2022/08/12 10:00:11;;;;;;;5.35;3.10;;;;;;;30.64;50.99;168605.72;5018278;28;20038;-58
2022/08/12 10:02:37;;;;;;;6.00;2.72;;;;;;;31.05;50.37;168712.13;5011373;28;20033;-58
2022/08/12 10:05:04;;;;;;;6.03;2.72;;;;;;;31.28;49.89;168773.53;5010009;28;20076;-59
2022/08/12 10:07:29;;;;;;;7.13;2.60;;;;;;;31.38;49.79;168799.50;5018829;28;20043;-58
2022/08/12 10:09:55;;;;;;;7.72;3.58;;;;;;;31.52;49.60;168837.69;5029584;28;20402;-58
2022/08/12 10:15:04;;;;;;;3.90;2.20;;;;;;;31.95;48.35;168952.38;5027640;28;20091;-59
2022/08/12 10:17:29;;;;;;;6.32;2.67;;;;;;;32.15;48.78;169004.19;5010706;28;20038;-59
2022/08/12 10:19:55;;;;;;;6.32;2.53;;;;;;;32.18;49.29;169011.00;5009971;28;20036;-58
2022/08/12 10:22:20;;;;;;;11.50;2.95;;;;;;;32.14;48.11;169001.47;5010607;28;20113;-58
2022/08/12 10:29:35;;;;;;;6.90;2.17;;;;;;;31.82;48.62;168916.91;5011119;28;20041;-58
2022/08/12 10:30:16;;;;;;;13.93;3.30;;;;;;;31.83;47.38;168918.25;5033355;28;20048;-59
2022/08/12 10:32:42;;;;;;;10.70;3.33;;;;;;;32.00;47.30;168963.25;5035080;28;20025;-58
2022/08/12 10:35:08;;;;;;;10.93;5.18;;;;;;;32.20;47.68;169017.88;5032949;28;20128;-59
2022/08/12 10:37:34;;;;;;;17.80;4.13;;;;;;;32.32;46.97;169049.28;5034489;28;20171;-58
2022/08/12 10:39:59;;;;;;;8.68;2.83;;;;;;;32.12;46.09;168996.03;5033571;28;20048;-59
2022/08/12 10:45:09;;;;;;;6.65;2.38;;;;;;;32.77;46.55;169168.09;5031000;28;20048;-58
2022/08/12 10:47:36;;;;;;;8.32;2.40;;;;;;;33.04;45.81;169239.06;5014515;28;20022;-59
2022/08/12 10:50:06;;;;;;;4.20;2.90;;;;;;;33.20;46.90;169282.75;5013379;28;20417;-58
2022/08/12 10:52:31;;;;;;;5.75;2.65;;;;;;;32.78;43.95;169169.44;5030449;28;20034;-59
2022/08/12 10:54:58;;;;;;;4.53;2.00;;;;;;;32.92;43.75;169206.31;5033089;28;20119;-58
2022/08/12 10:57:25;;;;;;;5.53;2.75;;;;;;;32.41;43.35;169073.84;5034156;28;20021;-59
2022/08/12 10:59:54;;;;;;;5.25;2.47;;;;;;;32.26;45.59;169034.31;5032733;28;20416;-58
2022/08/12 11:02:21;;;;;;;7.03;3.13;;;;;;;32.14;45.54;169001.47;5034460;28;20120;-59
2022/08/12 11:04:46;;;;;;;12.25;3.30;;;;;;;32.09;46.42;168987.84;5032949;28;20068;-59
2022/08/12 11:07:12;;;;;;;8.73;2.95;;;;;;;31.93;44.07;168946.88;5018684;28;20507;-59
2022/08/12 11:09:37;;;;;;;14.93;3.05;;;;;;;31.67;44.75;168875.94;5013090;28;20969;-58
2022/08/12 11:12:05;;;;;;;15.18;3.80;;;;;;;32.02;45.93;168968.72;5014760;28;20037;-58
2022/08/12 11:14:34;;;;;;;3.88;2.50;;;;;;;32.28;43.96;169039.72;5012825;28;20038;-59
2022/08/12 11:17:02;;;;;;;4.03;2.78;;;;;;;32.12;43.53;168996.03;5030588;28;20079;-59
2022/08/12 11:19:29;;;;;;;5.65;3.13;;;;;;;32.11;43.10;168994.66;5012549;28;20502;-58
2022/08/12 11:21:56;;;;;;;7.50;2.72;;;;;;;32.03;43.99;168971.47;5013813;28;20022;-58
2022/08/12 11:24:23;;;;;;;10.33;2.47;;;;;;;31.64;42.44;168870.44;5012542;28;20042;-59
2022/08/12 11:26:48;;;;;;;3.50;2.47;;;;;;;31.58;43.31;168854.06;5013968;28;20053;-58
2022/08/12 11:29:18;;;;;;;6.18;2.65;;;;;;;31.92;43.56;168944.16;5012576;28;20022;-59
2022/08/12 11:31:44;;;;;;;9.75;2.58;;;;;;;32.20;43.37;169017.88;5014092;28;20026;-58
2022/08/12 11:34:10;;;;;;;8.57;2.55;;;;;;;32.34;43.77;169053.41;5012474;28;20037;-59
2022/08/12 11:36:35;;;;;;;9.65;3.28;;;;;;;31.91;42.55;168940.06;5013329;28;20022;-59
2022/08/12 11:39:01;;;;;;;3.15;2.53;;;;;;;32.21;42.84;169019.22;5011873;28;20029;-58
2022/08/12 11:41:26;;;;;;;10.88;2.53;;;;;;;32.49;42.72;169092.97;5013575;28;20022;-59
2022/08/12 11:43:51;;;;;;;7.32;2.35;;;;;;;32.65;42.88;169135.31;5020745;28;20049;-58
2022/08/12 11:46:18;;;;;;;10.25;2.33;;;;;;;32.24;41.54;169028.84;5031772;28;20057;-59
2022/08/12 11:48:43;;;;;;;3.83;2.55;;;;;;;32.35;41.61;169056.16;5033389;28;20033;-59
2022/08/12 11:51:09;;;;;;;6.82;2.80;;;;;;;32.51;41.18;169099.78;5031687;28;20064;-58
2022/08/12 11:53:35;;;;;;;12.10;2.85;;;;;;;32.40;41.37;169069.78;5033251;28;20413;-58
2022/08/12 11:56:03;;;;;;;15.65;2.58;;;;;;;32.65;43.03;169136.66;5031727;28;20095;-58
2022/08/12 11:58:29;;;;;;;4.22;2.75;;;;;;;32.84;41.58;169187.22;5018511;28;20132;-58
2022/08/12 12:00:54;;;;;;;5.43;2.42;;;;;;;-146.58;100.00;69501.63;5012195;28;20042;-59
2022/08/12 12:03:19;;;;;;;5.25;2.63;;;;;;;-146.58;100.00;69501.63;5012999;28;20072;-59
2022/08/12 12:05:45;;;;;;;6.40;2.33;;;;;;;-146.58;100.00;69501.63;5011554;28;20045;-58
2022/08/12 12:08:24;;;;;;;10.32;2.88;;;;;;;32.21;39.98;169019.22;5013396;28;20026;-58
2022/08/12 12:10:50;;;;;;;3.35;2.67;;;;;;;32.58;40.79;169117.53;5028291;28;20049;-58
2022/08/12 12:13:17;;;;;;;4.10;2.22;;;;;;;32.63;40.73;169129.84;5028664;28;20053;-58
2022/08/12 12:15:43;;;;;;;2.35;2.15;;;;;;;32.55;39.74;169110.72;5011465;28;20089;-58
2022/08/12 12:18:25;;;;;;;4.97;1.83;;;;;;;32.96;39.79;169218.63;5013137;28;20069;-58
2022/08/12 12:20:59;;;;;;;4.13;2.75;;;;;;;32.86;40.15;169191.28;5011365;28;20041;-58
2022/08/12 12:23:24;;;;;;;4.47;3.22;;;;;;;32.45;38.78;169083.41;5013131;28;20076;-58
2022/08/12 12:25:50;;;;;;;5.80;2.75;;;;;;;32.45;39.97;169082.06;5011523;28;20447;-58
2022/08/12 12:28:16;;;;;;;4.32;2.00;;;;;;;32.62;40.17;169127.09;5012386;28;20053;-58
2022/08/12 12:30:41;;;;;;;3.78;2.28;;;;;;;32.87;39.96;169195.41;5011266;28;20056;-58
2022/08/12 12:33:09;;;;;;;3.25;2.40;;;;;;;32.89;42.01;169200.84;5012777;28;20581;-58
2022/08/12 12:35:35;;;;;;;5.30;2.22;;;;;;;33.11;39.03;169258.19;5016585;28;20072;-58
2022/08/12 12:38:05;;;;;;;7.72;2.67;;;;;;;33.18;42.47;169277.28;5025607;28;20060;-59
2022/08/12 12:40:32;;;;;;;2.60;2.13;;;;;;;32.52;39.70;169102.50;5011155;28;20038;-59
2022/08/12 12:42:58;;;;;;;12.80;3.90;;;;;;;32.87;40.05;169195.41;5013308;28;20109;-58
2022/08/12 12:45:25;;;;;;;4.85;2.47;;;;;;;33.20;40.47;169282.75;5030152;28;20071;-58
2022/08/12 12:48:16;;;;;;;6.63;2.30;;;;;;;33.35;40.67;169321.03;5032675;28;20025;-58
2022/08/12 12:51:14;;;;;;;4.32;1.88;;;;;;;33.26;39.56;169296.41;5029925;28;20037;-58
2022/08/12 12:53:37;;;;;;;4.07;1.98;;;;;;;33.20;40.01;169281.41;5031837;28;20033;-58
2022/08/12 12:56:03;;;;;;;11.32;2.65;;;;;;;32.44;38.98;169080.66;5030303;28;20034;-58
2022/08/12 12:58:28;;;;;;;6.10;2.47;;;;;;;32.75;38.82;169162.56;5032017;28;20021;-58
2022/08/12 13:00:57;;;;;;;3.95;2.33;;;;;;;32.93;38.54;169209.06;5019850;28;20104;-58
2022/08/12 13:03:22;;;;;;;3.42;2.28;;;;;;;32.84;38.29;169187.22;5011980;28;20029;-58